Hans Boye — OZKC2 — position and weather

sailwx.info

Track history (hours):
 
Tides and Currents Weather Stations Pressure Air Temp Water Temp Dewpoint Dewpoint Depression Visibility Wind Speed Wind Dir Waves Ship Positions

Hans Boye

Last reported at 2014-Mar-01 05:33 UTC. Time now 2014-Oct-23 15:13 UTC.
Position N 17°03' W 062°39'.
Warning: this ship's position is months out of date.

Length 88 m; draft 5 m.

Type: Cargo ship. MMSI: 219144000.

Date/timePositionNaut miles runAvg speedWind from/ knotsBaromVisibWave heightAir tempDewpointWater temp
2014-Mar-01 05:33N 17°03' W 062°39'1110.0
2014-Mar-01 04:27N 17°12' W 062°46'9 9.9
2014-Mar-01 03:33N 17°19' W 062°51'1010.0
2014-Mar-01 02:33N 17°28' W 062°55'9 9.5
2014-Mar-01 01:33N 17°37' W 062°58'9 9.3
2014-Mar-01 00:33N 17°45' W 063°04'9 9.0
2014-Feb-28 23:33N 17°52' W 063°09'9 9.3
2014-Feb-28 22:33N 18°02' W 063°11'6 6.3
2014-Feb-28 21:33N 18°05' W 063°05'0 0.1
2014-Feb-28 20:33N 18°05' W 063°05'0 0.0
2014-Feb-28 19:33N 18°05' W 063°05'0 0.0
2014-Feb-28 18:33N 18°05' W 063°05'0 0.0
2014-Feb-28 17:33N 18°05' W 063°05'0 0.0
2014-Feb-28 16:33N 18°05' W 063°05'0 0.0
2014-Feb-28 15:33N 18°05' W 063°05'0 0.0
2014-Feb-28 14:33N 18°05' W 063°05'0 0.0
2014-Feb-28 13:33N 18°05' W 063°05'0 0.0
2014-Feb-28 12:33N 18°05' W 063°05'0 0.0
2014-Feb-28 11:33N 18°05' W 063°05'0 0.0
2014-Feb-28 10:33N 18°05' W 063°05'0 0.4
2014-Feb-28 09:33N 18°05' W 063°06'0 0.0
2014-Feb-28 08:33N 18°05' W 063°06'0 0.0
2014-Feb-28 07:33N 18°05' W 063°06'0 0.0
2014-Feb-28 05:24N 18°05' W 063°06'0 0.0
2014-Feb-28 04:21N 18°05' W 063°06'0 0.0
2014-Feb-28 03:27N 18°05' W 063°06'0 0.0
2014-Feb-28 02:12N 18°05' W 063°06'0 0.0
2014-Feb-28 01:32N 18°05' W 063°06'0 0.0
2014-Feb-28 00:30N 18°05' W 063°06'0 0.0
2014-Feb-27 23:32N 18°05' W 063°06'0 0.0
2014-Feb-27 22:33N 18°05' W 063°06'5 4.5
2014-Feb-27 21:33N 18°02' W 063°09'18 9.0
2014-Feb-27 19:29N 17°54' W 062°51'0 0.0
2014-Feb-27 18:29N 17°54' W 062°51'0 0.0
2014-Feb-27 17:29N 17°54' W 062°51'0 0.0
2014-Feb-27 16:33N 17°54' W 062°51'0 0.0
2014-Feb-27 15:33N 17°54' W 062°51'0 0.0
2014-Feb-27 14:33N 17°54' W 062°51'0 0.0
2014-Feb-27 13:33N 17°54' W 062°51'0 0.0
2014-Feb-27 12:33N 17°54' W 062°51'0 0.0
2014-Feb-27 11:33N 17°54' W 062°51'1 1.0
2014-Feb-27 10:33N 17°54' W 062°52'8 7.5
2014-Feb-27 09:33N 17°48' W 062°48'1010.3
2014-Feb-27 08:33N 17°39' W 062°42'1010.3
2014-Feb-27 07:33N 17°31' W 062°36'1010.3
2014-Feb-27 06:33N 17°22' W 062°30'4110.2
2014-Feb-27 02:33N 16°48' W 062°06'10 9.9
2014-Feb-27 01:33N 16°39' W 062°01'1010.1
2014-Feb-27 00:33N 16°30' W 061°58'  
2014-Feb-22 09:06N 16°42' W 062°23'7 9.8
2014-Feb-22 08:24N 16°47' W 062°27'18 9.5
2014-Feb-22 06:29N 17°02' W 062°38'9 9.5
2014-Feb-22 05:33N 17°08' W 062°45'13 9.5
2014-Feb-22 04:14N 17°18' W 062°53'6 9.4
2014-Feb-22 03:33N 17°24' W 062°55'9 9.5
2014-Feb-22 02:33N 17°33' W 062°56'9 9.0
2014-Feb-22 01:33N 17°40' W 063°02'9 9.4
2014-Feb-22 00:33N 17°49' W 063°04'9 9.4
2014-Feb-21 23:33N 17°58' W 063°06'6 5.7
2014-Feb-21 22:33N 18°02' W 063°11'6 5.6
2014-Feb-21 21:27N 18°05' W 063°05'0 0.0
2014-Feb-21 20:33N 18°05' W 063°05'0 0.0
2014-Feb-21 19:33N 18°05' W 063°05'0 0.0
2014-Feb-21 18:33N 18°05' W 063°05'0 0.0
2014-Feb-21 17:27N 18°05' W 063°05'0 0.0
2014-Feb-21 16:33N 18°05' W 063°05'0 0.0
2014-Feb-21 15:30N 18°05' W 063°05'0 0.0
2014-Feb-21 14:27N 18°05' W 063°05'0 0.0
2014-Feb-21 13:33N 18°05' W 063°05'0 0.0
2014-Feb-21 12:33N 18°05' W 063°05'0 0.0
2014-Feb-21 11:33N 18°05' W 063°05'1 1.1
2014-Feb-21 10:34N 18°05' W 063°06'0 0.3
2014-Feb-21 09:31N 18°05' W 063°07'0 0.0
2014-Feb-21 08:31N 18°05' W 063°07'0 0.0
2014-Feb-21 07:25N 18°05' W 063°07'0 0.0
2014-Feb-21 06:31N 18°05' W 063°07'0 0.0
2014-Feb-21 05:31N 18°05' W 063°07'0 0.0
2014-Feb-21 04:31N 18°05' W 063°07'0 0.0
2014-Feb-21 03:31N 18°05' W 063°07'0 0.0
2014-Feb-21 02:31N 18°05' W 063°07'0 0.0
2014-Feb-21 01:31N 18°05' W 063°07'0 0.0
2014-Feb-21 00:25N 18°05' W 063°07'1 1.6
2014-Feb-20 23:33N 18°06' W 063°08'6 6.4
2014-Feb-20 22:33N 17°60' W 063°06'1010.4
2014-Feb-20 21:33N 17°55' W 062°56'4 4.3
2014-Feb-20 20:33N 17°54' W 062°51'0 0.0
2014-Feb-20 19:33N 17°54' W 062°51'0 0.0
2014-Feb-20 18:33N 17°54' W 062°51'0 0.0
2014-Feb-20 17:33N 17°54' W 062°51'0 0.0
2014-Feb-20 16:33N 17°54' W 062°51'0 0.0
2014-Feb-20 15:33N 17°54' W 062°51'0 0.0
2014-Feb-20 14:33N 17°54' W 062°51'0 0.0
2014-Feb-20 13:33N 17°54' W 062°51'0 0.0
2014-Feb-20 12:33N 17°54' W 062°51'0 0.0
2014-Feb-20 11:33N 17°54' W 062°51'7 7.0
2014-Feb-20 10:33N 17°48' W 062°48'10 9.6
2014-Feb-20 09:33N 17°40' W 062°42'10 9.7
2014-Feb-20 08:33N 17°32' W 062°37'10 9.7
2014-Feb-20 07:33N 17°24' W 062°31'  
Track history (hours):
 
Tides and Currents Weather Stations Pressure Air Temp Water Temp Dewpoint Dewpoint Depression Visibility Wind Speed Wind Dir Waves Ship Positions

Hans Boye

Last reported at 2014-Mar-01 05:33 UTC. Time now 2014-Oct-23 15:13 UTC.
Position N 17°03' W 062°39'.
Warning: this ship's position is months out of date.

Length 88 m; draft 5 m.

Type: Cargo ship. MMSI: 219144000.

Date/timePositionNaut miles runAvg speedWind from/ knotsBaromVisibWave heightAir tempDewpointWater temp
2014-Mar-01 05:33N 17°03' W 062°39'1110.0
2014-Mar-01 04:27N 17°12' W 062°46'9 9.9
2014-Mar-01 03:33N 17°19' W 062°51'1010.0
2014-Mar-01 02:33N 17°28' W 062°55'9 9.5
2014-Mar-01 01:33N 17°37' W 062°58'9 9.3
2014-Mar-01 00:33N 17°45' W 063°04'9 9.0
2014-Feb-28 23:33N 17°52' W 063°09'9 9.3
2014-Feb-28 22:33N 18°02' W 063°11'6 6.3
2014-Feb-28 21:33N 18°05' W 063°05'0 0.1
2014-Feb-28 20:33N 18°05' W 063°05'0 0.0
2014-Feb-28 19:33N 18°05' W 063°05'0 0.0
2014-Feb-28 18:33N 18°05' W 063°05'0 0.0
2014-Feb-28 17:33N 18°05' W 063°05'0 0.0
2014-Feb-28 16:33N 18°05' W 063°05'0 0.0
2014-Feb-28 15:33N 18°05' W 063°05'0 0.0
2014-Feb-28 14:33N 18°05' W 063°05'0 0.0
2014-Feb-28 13:33N 18°05' W 063°05'0 0.0
2014-Feb-28 12:33N 18°05' W 063°05'0 0.0
2014-Feb-28 11:33N 18°05' W 063°05'0 0.0
2014-Feb-28 10:33N 18°05' W 063°05'0 0.4
2014-Feb-28 09:33N 18°05' W 063°06'0 0.0
2014-Feb-28 08:33N 18°05' W 063°06'0 0.0
2014-Feb-28 07:33N 18°05' W 063°06'0 0.0
2014-Feb-28 05:24N 18°05' W 063°06'0 0.0
2014-Feb-28 04:21N 18°05' W 063°06'0 0.0
2014-Feb-28 03:27N 18°05' W 063°06'0 0.0
2014-Feb-28 02:12N 18°05' W 063°06'0 0.0
2014-Feb-28 01:32N 18°05' W 063°06'0 0.0
2014-Feb-28 00:30N 18°05' W 063°06'0 0.0
2014-Feb-27 23:32N 18°05' W 063°06'0 0.0
2014-Feb-27 22:33N 18°05' W 063°06'5 4.5
2014-Feb-27 21:33N 18°02' W 063°09'18 9.0
2014-Feb-27 19:29N 17°54' W 062°51'0 0.0
2014-Feb-27 18:29N 17°54' W 062°51'0 0.0
2014-Feb-27 17:29N 17°54' W 062°51'0 0.0
2014-Feb-27 16:33N 17°54' W 062°51'0 0.0
2014-Feb-27 15:33N 17°54' W 062°51'0 0.0
2014-Feb-27 14:33N 17°54' W 062°51'0 0.0
2014-Feb-27 13:33N 17°54' W 062°51'0 0.0
2014-Feb-27 12:33N 17°54' W 062°51'0 0.0
2014-Feb-27 11:33N 17°54' W 062°51'1 1.0
2014-Feb-27 10:33N 17°54' W 062°52'8 7.5
2014-Feb-27 09:33N 17°48' W 062°48'1010.3
2014-Feb-27 08:33N 17°39' W 062°42'1010.3
2014-Feb-27 07:33N 17°31' W 062°36'1010.3
2014-Feb-27 06:33N 17°22' W 062°30'4110.2
2014-Feb-27 02:33N 16°48' W 062°06'10 9.9
2014-Feb-27 01:33N 16°39' W 062°01'1010.1
2014-Feb-27 00:33N 16°30' W 061°58'  
2014-Feb-22 09:06N 16°42' W 062°23'7 9.8
2014-Feb-22 08:24N 16°47' W 062°27'18 9.5
2014-Feb-22 06:29N 17°02' W 062°38'9 9.5
2014-Feb-22 05:33N 17°08' W 062°45'13 9.5
2014-Feb-22 04:14N 17°18' W 062°53'6 9.4
2014-Feb-22 03:33N 17°24' W 062°55'9 9.5
2014-Feb-22 02:33N 17°33' W 062°56'9 9.0
2014-Feb-22 01:33N 17°40' W 063°02'9 9.4
2014-Feb-22 00:33N 17°49' W 063°04'9 9.4
2014-Feb-21 23:33N 17°58' W 063°06'6 5.7
2014-Feb-21 22:33N 18°02' W 063°11'6 5.6
2014-Feb-21 21:27N 18°05' W 063°05'0 0.0
2014-Feb-21 20:33N 18°05' W 063°05'0 0.0
2014-Feb-21 19:33N 18°05' W 063°05'0 0.0
2014-Feb-21 18:33N 18°05' W 063°05'0 0.0
2014-Feb-21 17:27N 18°05' W 063°05'0 0.0
2014-Feb-21 16:33N 18°05' W 063°05'0 0.0
2014-Feb-21 15:30N 18°05' W 063°05'0 0.0
2014-Feb-21 14:27N 18°05' W 063°05'0 0.0
2014-Feb-21 13:33N 18°05' W 063°05'0 0.0
2014-Feb-21 12:33N 18°05' W 063°05'0 0.0
2014-Feb-21 11:33N 18°05' W 063°05'1 1.1
2014-Feb-21 10:34N 18°05' W 063°06'0 0.3
2014-Feb-21 09:31N 18°05' W 063°07'0 0.0
2014-Feb-21 08:31N 18°05' W 063°07'0 0.0
2014-Feb-21 07:25N 18°05' W 063°07'0 0.0
2014-Feb-21 06:31N 18°05' W 063°07'0 0.0
2014-Feb-21 05:31N 18°05' W 063°07'0 0.0
2014-Feb-21 04:31N 18°05' W 063°07'0 0.0
2014-Feb-21 03:31N 18°05' W 063°07'0 0.0
2014-Feb-21 02:31N 18°05' W 063°07'0 0.0
2014-Feb-21 01:31N 18°05' W 063°07'0 0.0
2014-Feb-21 00:25N 18°05' W 063°07'1 1.6
2014-Feb-20 23:33N 18°06' W 063°08'6 6.4
2014-Feb-20 22:33N 17°60' W 063°06'1010.4
2014-Feb-20 21:33N 17°55' W 062°56'4 4.3
2014-Feb-20 20:33N 17°54' W 062°51'0 0.0
2014-Feb-20 19:33N 17°54' W 062°51'0 0.0
2014-Feb-20 18:33N 17°54' W 062°51'0 0.0
2014-Feb-20 17:33N 17°54' W 062°51'0 0.0
2014-Feb-20 16:33N 17°54' W 062°51'0 0.0
2014-Feb-20 15:33N 17°54' W 062°51'0 0.0
2014-Feb-20 14:33N 17°54' W 062°51'0 0.0
2014-Feb-20 13:33N 17°54' W 062°51'0 0.0
2014-Feb-20 12:33N 17°54' W 062°51'0 0.0
2014-Feb-20 11:33N 17°54' W 062°51'7 7.0
2014-Feb-20 10:33N 17°48' W 062°48'10 9.6
2014-Feb-20 09:33N 17°40' W 062°42'10 9.7
2014-Feb-20 08:33N 17°32' W 062°37'10 9.7
2014-Feb-20 07:33N 17°24' W 062°31'  

Dump ship's entire track history